sensor_id;sensor_type;location;lat;lon;timestamp;P1;durP1;ratioP1;P2;durP2;ratioP2
82646;SDS011;72325;41.910;22.404;2023-12-20T00:01:37;57.47;;;35.22;;
82646;SDS011;72325;41.910;22.404;2023-12-20T00:04:03;89.45;;;48.85;;
82646;SDS011;72325;41.910;22.404;2023-12-20T00:06:30;75.75;;;45.80;;
82646;SDS011;72325;41.910;22.404;2023-12-20T00:11:59;74.57;;;45.08;;
82646;SDS011;72325;41.910;22.404;2023-12-20T00:14:25;78.07;;;46.17;;
82646;SDS011;72325;41.910;22.404;2023-12-20T00:16:51;75.13;;;45.85;;
82646;SDS011;72325;41.910;22.404;2023-12-20T00:19:17;78.07;;;46.03;;
82646;SDS011;72325;41.910;22.404;2023-12-20T00:21:43;71.40;;;42.08;;
82646;SDS011;72325;41.910;22.404;2023-12-20T00:27:13;96.05;;;51.85;;
82646;SDS011;72325;41.910;22.404;2023-12-20T00:29:39;105.70;;;55.65;;
82646;SDS011;72325;41.910;22.404;2023-12-20T00:32:08;108.30;;;57.13;;
82646;SDS011;72325;41.910;22.404;2023-12-20T00:34:34;104.55;;;56.47;;
82646;SDS011;72325;41.910;22.404;2023-12-20T00:37:00;71.57;;;38.38;;
82646;SDS011;72325;41.910;22.404;2023-12-20T00:39:26;73.82;;;41.45;;
82646;SDS011;72325;41.910;22.404;2023-12-20T00:41:52;89.32;;;46.03;;
82646;SDS011;72325;41.910;22.404;2023-12-20T00:44:18;60.97;;;35.60;;
82646;SDS011;72325;41.910;22.404;2023-12-20T00:46:44;68.60;;;38.13;;
82646;SDS011;72325;41.910;22.404;2023-12-20T00:49:10;85.95;;;48.08;;
82646;SDS011;72325;41.910;22.404;2023-12-20T00:51:36;82.75;;;47.03;;
82646;SDS011;72325;41.910;22.404;2023-12-20T00:57:05;82.22;;;45.08;;
82646;SDS011;72325;41.910;22.404;2023-12-20T00:59:31;79.90;;;47.35;;
82646;SDS011;72325;41.910;22.404;2023-12-20T01:01:58;80.53;;;47.22;;
82646;SDS011;72325;41.910;22.404;2023-12-20T01:04:24;79.22;;;45.70;;
82646;SDS011;72325;41.910;22.404;2023-12-20T01:06:50;83.28;;;49.33;;
82646;SDS011;72325;41.910;22.404;2023-12-20T01:12:19;124.85;;;63.03;;
82646;SDS011;72325;41.910;22.404;2023-12-20T01:14:45;129.80;;;55.67;;
82646;SDS011;72325;41.910;22.404;2023-12-20T01:17:12;120.03;;;50.45;;
82646;SDS011;72325;41.910;22.404;2023-12-20T01:19:38;67.85;;;28.65;;
82646;SDS011;72325;41.910;22.404;2023-12-20T01:22:04;70.13;;;31.95;;
82646;SDS011;72325;41.910;22.404;2023-12-20T01:24:30;69.95;;;28.95;;
82646;SDS011;72325;41.910;22.404;2023-12-20T01:26:56;86.38;;;37.50;;
82646;SDS011;72325;41.910;22.404;2023-12-20T01:29:22;81.38;;;35.75;;
82646;SDS011;72325;41.910;22.404;2023-12-20T01:31:48;83.72;;;36.78;;
82646;SDS011;72325;41.910;22.404;2023-12-20T01:34:15;62.22;;;32.70;;
82646;SDS011;72325;41.910;22.404;2023-12-20T01:36:41;58.25;;;30.30;;
82646;SDS011;72325;41.910;22.404;2023-12-20T01:42:10;48.10;;;27.42;;
82646;SDS011;72325;41.910;22.404;2023-12-20T01:44:37;52.67;;;28.00;;
82646;SDS011;72325;41.910;22.404;2023-12-20T01:47:03;50.58;;;27.80;;
82646;SDS011;72325;41.910;22.404;2023-12-20T01:49:29;49.83;;;28.02;;
82646;SDS011;72325;41.910;22.404;2023-12-20T01:51:55;49.72;;;27.17;;
82646;SDS011;72325;41.910;22.404;2023-12-20T01:57:25;34.25;;;20.63;;
82646;SDS011;72325;41.910;22.404;2023-12-20T01:59:51;56.13;;;30.33;;
82646;SDS011;72325;41.910;22.404;2023-12-20T02:02:17;57.92;;;30.95;;
82646;SDS011;72325;41.910;22.404;2023-12-20T02:04:43;49.72;;;29.00;;
82646;SDS011;72325;41.910;22.404;2023-12-20T02:07:10;57.60;;;38.17;;
82646;SDS011;72325;41.910;22.404;2023-12-20T02:09:37;52.30;;;26.35;;
82646;SDS011;72325;41.910;22.404;2023-12-20T02:12:04;42.05;;;22.95;;
82646;SDS011;72325;41.910;22.404;2023-12-20T02:14:30;30.40;;;18.20;;
82646;SDS011;72325;41.910;22.404;2023-12-20T02:16:56;39.22;;;20.60;;
82646;SDS011;72325;41.910;22.404;2023-12-20T02:19:22;37.45;;;21.08;;
82646;SDS011;72325;41.910;22.404;2023-12-20T02:21:48;34.35;;;19.13;;
82646;SDS011;72325;41.910;22.404;2023-12-20T02:27:19;52.55;;;27.40;;
82646;SDS011;72325;41.910;22.404;2023-12-20T02:29:46;51.15;;;27.95;;
82646;SDS011;72325;41.910;22.404;2023-12-20T02:32:13;53.70;;;28.83;;
82646;SDS011;72325;41.910;22.404;2023-12-20T02:34:39;38.97;;;23.25;;
82646;SDS011;72325;41.910;22.404;2023-12-20T02:37:05;46.70;;;25.48;;
82646;SDS011;72325;41.910;22.404;2023-12-20T02:42:35;40.05;;;22.33;;
82646;SDS011;72325;41.910;22.404;2023-12-20T02:45:01;40.63;;;22.40;;
82646;SDS011;72325;41.910;22.404;2023-12-20T02:47:27;41.38;;;24.17;;
82646;SDS011;72325;41.910;22.404;2023-12-20T02:49:55;39.33;;;22.27;;
82646;SDS011;72325;41.910;22.404;2023-12-20T02:52:21;47.15;;;25.80;;
82646;SDS011;72325;41.910;22.404;2023-12-20T02:54:48;97.95;;;45.58;;
82646;SDS011;72325;41.910;22.404;2023-12-20T02:57:14;55.60;;;32.30;;
82646;SDS011;72325;41.910;22.404;2023-12-20T02:59:41;56.22;;;30.50;;
82646;SDS011;72325;41.910;22.404;2023-12-20T03:02:07;61.05;;;33.08;;
82646;SDS011;72325;41.910;22.404;2023-12-20T03:04:33;61.05;;;32.67;;
82646;SDS011;72325;41.910;22.404;2023-12-20T03:07:00;60.83;;;32.15;;
82646;SDS011;72325;41.910;22.404;2023-12-20T03:12:29;68.00;;;33.42;;
82646;SDS011;72325;41.910;22.404;2023-12-20T03:14:55;43.95;;;23.83;;
82646;SDS011;72325;41.910;22.404;2023-12-20T03:17:21;42.30;;;24.30;;
82646;SDS011;72325;41.910;22.404;2023-12-20T03:19:47;40.97;;;24.80;;
82646;SDS011;72325;41.910;22.404;2023-12-20T03:22:13;74.88;;;38.33;;
82646;SDS011;72325;41.910;22.404;2023-12-20T03:27:43;51.30;;;28.33;;
82646;SDS011;72325;41.910;22.404;2023-12-20T03:30:09;38.33;;;22.23;;
82646;SDS011;72325;41.910;22.404;2023-12-20T03:32:36;42.28;;;23.58;;
82646;SDS011;72325;41.910;22.404;2023-12-20T03:35:03;39.28;;;23.02;;
82646;SDS011;72325;41.910;22.404;2023-12-20T03:37:29;36.80;;;20.40;;
82646;SDS011;72325;41.910;22.404;2023-12-20T03:39:55;32.65;;;19.42;;
82646;SDS011;72325;41.910;22.404;2023-12-20T03:42:21;31.02;;;18.45;;
82646;SDS011;72325;41.910;22.404;2023-12-20T03:44:47;29.65;;;16.92;;
82646;SDS011;72325;41.910;22.404;2023-12-20T03:47:13;24.02;;;14.10;;
82646;SDS011;72325;41.910;22.404;2023-12-20T03:49:39;23.88;;;14.32;;
82646;SDS011;72325;41.910;22.404;2023-12-20T03:52:05;29.58;;;17.38;;
82646;SDS011;72325;41.910;22.404;2023-12-20T03:57:35;61.05;;;28.30;;
82646;SDS011;72325;41.910;22.404;2023-12-20T04:00:01;50.80;;;26.05;;
82646;SDS011;72325;41.910;22.404;2023-12-20T04:02:27;39.85;;;22.38;;
82646;SDS011;72325;41.910;22.404;2023-12-20T04:04:53;34.70;;;19.02;;
82646;SDS011;72325;41.910;22.404;2023-12-20T04:07:19;32.38;;;18.40;;
82646;SDS011;72325;41.910;22.404;2023-12-20T04:12:49;30.63;;;17.35;;
82646;SDS011;72325;41.910;22.404;2023-12-20T04:15:15;34.40;;;17.38;;
82646;SDS011;72325;41.910;22.404;2023-12-20T04:17:41;34.33;;;17.42;;
82646;SDS011;72325;41.910;22.404;2023-12-20T04:20:07;27.73;;;16.92;;
82646;SDS011;72325;41.910;22.404;2023-12-20T04:22:33;30.70;;;16.52;;
82646;SDS011;72325;41.910;22.404;2023-12-20T04:24:59;26.98;;;15.07;;
82646;SDS011;72325;41.910;22.404;2023-12-20T04:27:26;26.15;;;15.13;;
82646;SDS011;72325;41.910;22.404;2023-12-20T04:29:52;27.58;;;15.00;;
82646;SDS011;72325;41.910;22.404;2023-12-20T04:32:18;20.15;;;13.63;;
82646;SDS011;72325;41.910;22.404;2023-12-20T04:34:44;25.58;;;14.65;;
82646;SDS011;72325;41.910;22.404;2023-12-20T04:37:10;20.30;;;12.23;;
82646;SDS011;72325;41.910;22.404;2023-12-20T04:42:41;44.95;;;23.40;;
82646;SDS011;72325;41.910;22.404;2023-12-20T04:45:07;46.35;;;26.35;;
82646;SDS011;72325;41.910;22.404;2023-12-20T04:47:33;37.40;;;20.60;;
82646;SDS011;72325;41.910;22.404;2023-12-20T04:49:59;34.97;;;21.00;;
82646;SDS011;72325;41.910;22.404;2023-12-20T04:52:25;108.18;;;55.03;;
82646;SDS011;72325;41.910;22.404;2023-12-20T04:57:55;50.42;;;30.33;;
82646;SDS011;72325;41.910;22.404;2023-12-20T05:00:21;49.85;;;28.60;;
82646;SDS011;72325;41.910;22.404;2023-12-20T05:02:47;47.33;;;26.35;;
82646;SDS011;72325;41.910;22.404;2023-12-20T05:05:13;48.15;;;27.30;;
82646;SDS011;72325;41.910;22.404;2023-12-20T05:07:42;46.63;;;24.05;;
82646;SDS011;72325;41.910;22.404;2023-12-20T05:10:09;38.35;;;22.58;;
82646;SDS011;72325;41.910;22.404;2023-12-20T05:12:35;37.53;;;21.48;;
82646;SDS011;72325;41.910;22.404;2023-12-20T05:15:01;43.53;;;28.48;;
82646;SDS011;72325;41.910;22.404;2023-12-20T05:17:27;43.65;;;24.83;;
82646;SDS011;72325;41.910;22.404;2023-12-20T05:19:53;44.33;;;26.60;;
82646;SDS011;72325;41.910;22.404;2023-12-20T05:22:19;38.90;;;24.10;;
82646;SDS011;72325;41.910;22.404;2023-12-20T05:27:49;41.28;;;24.52;;
82646;SDS011;72325;41.910;22.404;2023-12-20T05:30:15;42.70;;;25.02;;
82646;SDS011;72325;41.910;22.404;2023-12-20T05:32:41;34.80;;;20.98;;
82646;SDS011;72325;41.910;22.404;2023-12-20T05:35:07;36.95;;;22.85;;
82646;SDS011;72325;41.910;22.404;2023-12-20T05:37:33;36.13;;;22.33;;
82646;SDS011;72325;41.910;22.404;2023-12-20T05:43:02;30.85;;;18.95;;
82646;SDS011;72325;41.910;22.404;2023-12-20T05:45:29;41.50;;;22.35;;
82646;SDS011;72325;41.910;22.404;2023-12-20T05:47:55;34.97;;;22.67;;
82646;SDS011;72325;41.910;22.404;2023-12-20T05:50:21;37.25;;;21.77;;
82646;SDS011;72325;41.910;22.404;2023-12-20T05:52:47;39.85;;;24.20;;
82646;SDS011;72325;41.910;22.404;2023-12-20T05:58:17;44.47;;;27.52;;
82646;SDS011;72325;41.910;22.404;2023-12-20T06:00:43;61.80;;;34.58;;
82646;SDS011;72325;41.910;22.404;2023-12-20T06:03:09;62.90;;;38.03;;
82646;SDS011;72325;41.910;22.404;2023-12-20T06:05:35;67.18;;;39.58;;
82646;SDS011;72325;41.910;22.404;2023-12-20T06:08:01;62.22;;;39.15;;
82646;SDS011;72325;41.910;22.404;2023-12-20T06:10:28;57.53;;;35.38;;
82646;SDS011;72325;41.910;22.404;2023-12-20T06:12:54;65.03;;;38.45;;
82646;SDS011;72325;41.910;22.404;2023-12-20T06:15:21;38.25;;;24.20;;
82646;SDS011;72325;41.910;22.404;2023-12-20T06:17:48;58.97;;;34.78;;
82646;SDS011;72325;41.910;22.404;2023-12-20T06:20:14;66.50;;;35.67;;
82646;SDS011;72325;41.910;22.404;2023-12-20T06:22:40;68.15;;;39.22;;
82646;SDS011;72325;41.910;22.404;2023-12-20T06:28:09;73.25;;;41.90;;
82646;SDS011;72325;41.910;22.404;2023-12-20T06:30:39;71.25;;;42.97;;
82646;SDS011;72325;41.910;22.404;2023-12-20T06:33:05;72.15;;;40.92;;
82646;SDS011;72325;41.910;22.404;2023-12-20T06:35:32;69.90;;;38.67;;
82646;SDS011;72325;41.910;22.404;2023-12-20T06:37:58;71.28;;;42.25;;
82646;SDS011;72325;41.910;22.404;2023-12-20T06:43:27;87.97;;;49.42;;
82646;SDS011;72325;41.910;22.404;2023-12-20T06:45:54;89.50;;;54.17;;
82646;SDS011;72325;41.910;22.404;2023-12-20T06:48:20;83.03;;;48.33;;
82646;SDS011;72325;41.910;22.404;2023-12-20T06:50:46;77.72;;;48.40;;
82646;SDS011;72325;41.910;22.404;2023-12-20T06:53:12;82.45;;;46.40;;
82646;SDS011;72325;41.910;22.404;2023-12-20T06:58:42;78.57;;;48.00;;
82646;SDS011;72325;41.910;22.404;2023-12-20T07:01:13;74.30;;;45.90;;
82646;SDS011;72325;41.910;22.404;2023-12-20T07:03:40;72.22;;;44.03;;
82646;SDS011;72325;41.910;22.404;2023-12-20T07:06:06;73.05;;;42.40;;
82646;SDS011;72325;41.910;22.404;2023-12-20T07:08:32;72.18;;;41.90;;
82646;SDS011;72325;41.910;22.404;2023-12-20T07:10:59;75.13;;;43.65;;
82646;SDS011;72325;41.910;22.404;2023-12-20T07:13:25;68.78;;;40.30;;
82646;SDS011;72325;41.910;22.404;2023-12-20T07:15:51;80.80;;;44.88;;
82646;SDS011;72325;41.910;22.404;2023-12-20T07:18:17;54.25;;;33.80;;
82646;SDS011;72325;41.910;22.404;2023-12-20T07:20:43;49.95;;;32.63;;
82646;SDS011;72325;41.910;22.404;2023-12-20T07:23:09;47.78;;;31.63;;
82646;SDS011;72325;41.910;22.404;2023-12-20T07:28:39;48.90;;;31.02;;
82646;SDS011;72325;41.910;22.404;2023-12-20T07:31:05;48.30;;;30.90;;
82646;SDS011;72325;41.910;22.404;2023-12-20T07:33:31;43.05;;;26.92;;
82646;SDS011;72325;41.910;22.404;2023-12-20T07:35:59;43.65;;;25.05;;
82646;SDS011;72325;41.910;22.404;2023-12-20T07:38:26;35.85;;;23.10;;
82646;SDS011;72325;41.910;22.404;2023-12-20T07:43:55;34.75;;;23.15;;
82646;SDS011;72325;41.910;22.404;2023-12-20T07:46:21;38.78;;;23.63;;
82646;SDS011;72325;41.910;22.404;2023-12-20T07:48:48;35.78;;;23.00;;
82646;SDS011;72325;41.910;22.404;2023-12-20T07:51:14;31.55;;;20.73;;
82646;SDS011;72325;41.910;22.404;2023-12-20T07:53:41;37.80;;;23.75;;
82646;SDS011;72325;41.910;22.404;2023-12-20T07:59:29;37.38;;;24.95;;
82646;SDS011;72325;41.910;22.404;2023-12-20T08:01:55;44.15;;;27.92;;
82646;SDS011;72325;41.910;22.404;2023-12-20T08:04:21;40.10;;;26.70;;
82646;SDS011;72325;41.910;22.404;2023-12-20T08:06:47;37.15;;;23.13;;
82646;SDS011;72325;41.910;22.404;2023-12-20T08:09:14;33.13;;;20.67;;
82646;SDS011;72325;41.910;22.404;2023-12-20T08:11:44;32.15;;;19.40;;
82646;SDS011;72325;41.910;22.404;2023-12-20T08:14:10;37.15;;;22.95;;
82646;SDS011;72325;41.910;22.404;2023-12-20T08:16:36;35.47;;;22.13;;
82646;SDS011;72325;41.910;22.404;2023-12-20T08:19:02;37.60;;;23.30;;
82646;SDS011;72325;41.910;22.404;2023-12-20T08:21:29;35.03;;;23.58;;
82646;SDS011;72325;41.910;22.404;2023-12-20T08:23:57;37.22;;;25.67;;
82646;SDS011;72325;41.910;22.404;2023-12-20T08:26:25;41.83;;;28.13;;
82646;SDS011;72325;41.910;22.404;2023-12-20T08:28:52;38.30;;;25.85;;
82646;SDS011;72325;41.910;22.404;2023-12-20T08:31:18;35.17;;;25.63;;
82646;SDS011;72325;41.910;22.404;2023-12-20T08:33:44;37.75;;;24.23;;
82646;SDS011;72325;41.910;22.404;2023-12-20T08:36:11;29.65;;;20.30;;
82646;SDS011;72325;41.910;22.404;2023-12-20T08:38:37;32.80;;;19.52;;
82646;SDS011;72325;41.910;22.404;2023-12-20T08:44:06;21.50;;;15.20;;
82646;SDS011;72325;41.910;22.404;2023-12-20T08:46:32;25.73;;;17.30;;
82646;SDS011;72325;41.910;22.404;2023-12-20T08:48:59;26.95;;;17.88;;
82646;SDS011;72325;41.910;22.404;2023-12-20T08:51:25;25.88;;;16.63;;
82646;SDS011;72325;41.910;22.404;2023-12-20T08:53:51;27.45;;;17.13;;
82646;SDS011;72325;41.910;22.404;2023-12-20T08:59:21;26.23;;;17.63;;
82646;SDS011;72325;41.910;22.404;2023-12-20T09:01:47;28.27;;;17.27;;
82646;SDS011;72325;41.910;22.404;2023-12-20T09:04:19;24.35;;;15.45;;
82646;SDS011;72325;41.910;22.404;2023-12-20T09:06:45;20.77;;;14.15;;
82646;SDS011;72325;41.910;22.404;2023-12-20T09:09:11;17.65;;;11.52;;
82646;SDS011;72325;41.910;22.404;2023-12-20T09:11:39;18.90;;;11.05;;
82646;SDS011;72325;41.910;22.404;2023-12-20T09:14:05;18.02;;;12.57;;
82646;SDS011;72325;41.910;22.404;2023-12-20T09:16:32;17.27;;;11.35;;
82646;SDS011;72325;41.910;22.404;2023-12-20T09:18:58;16.30;;;10.57;;
82646;SDS011;72325;41.910;22.404;2023-12-20T09:21:24;16.23;;;11.52;;
82646;SDS011;72325;41.910;22.404;2023-12-20T09:23:50;15.90;;;9.93;;
82646;SDS011;72325;41.910;22.404;2023-12-20T09:29:20;17.23;;;11.35;;
82646;SDS011;72325;41.910;22.404;2023-12-20T09:31:54;24.00;;;14.60;;
82646;SDS011;72325;41.910;22.404;2023-12-20T09:34:20;25.40;;;16.15;;
82646;SDS011;72325;41.910;22.404;2023-12-20T09:36:47;18.67;;;12.77;;
82646;SDS011;72325;41.910;22.404;2023-12-20T09:39:13;20.85;;;12.05;;
82646;SDS011;72325;41.910;22.404;2023-12-20T09:44:47;19.80;;;12.63;;
82646;SDS011;72325;41.910;22.404;2023-12-20T09:47:13;18.67;;;12.35;;
82646;SDS011;72325;41.910;22.404;2023-12-20T09:49:41;21.17;;;12.23;;
82646;SDS011;72325;41.910;22.404;2023-12-20T09:52:09;18.33;;;12.00;;
82646;SDS011;72325;41.910;22.404;2023-12-20T09:54:35;21.95;;;14.63;;
82646;SDS011;72325;41.910;22.404;2023-12-20T09:57:02;26.02;;;14.55;;
82646;SDS011;72325;41.910;22.404;2023-12-20T09:59:28;18.08;;;11.88;;
82646;SDS011;72325;41.910;22.404;2023-12-20T10:01:55;16.85;;;12.52;;
82646;SDS011;72325;41.910;22.404;2023-12-20T10:04:24;16.48;;;11.82;;
82646;SDS011;72325;41.910;22.404;2023-12-20T10:06:51;17.75;;;12.40;;
82646;SDS011;72325;41.910;22.404;2023-12-20T10:09:17;16.77;;;11.85;;
82646;SDS011;72325;41.910;22.404;2023-12-20T10:14:47;15.93;;;11.60;;
82646;SDS011;72325;41.910;22.404;2023-12-20T10:17:13;17.83;;;11.23;;
82646;SDS011;72325;41.910;22.404;2023-12-20T10:19:40;13.60;;;9.32;;
82646;SDS011;72325;41.910;22.404;2023-12-20T10:22:06;13.63;;;8.82;;
82646;SDS011;72325;41.910;22.404;2023-12-20T10:24:32;13.55;;;8.98;;
82646;SDS011;72325;41.910;22.404;2023-12-20T10:30:02;15.88;;;9.90;;
82646;SDS011;72325;41.910;22.404;2023-12-20T10:32:28;14.48;;;8.93;;
82646;SDS011;72325;41.910;22.404;2023-12-20T10:34:54;10.65;;;6.93;;
82646;SDS011;72325;41.910;22.404;2023-12-20T10:37:21;10.82;;;7.70;;
82646;SDS011;72325;41.910;22.404;2023-12-20T10:39:52;11.02;;;7.07;;
82646;SDS011;72325;41.910;22.404;2023-12-20T10:45:55;13.43;;;8.70;;
82646;SDS011;72325;41.910;22.404;2023-12-20T10:48:22;12.10;;;8.45;;
82646;SDS011;72325;41.910;22.404;2023-12-20T10:50:54;10.18;;;6.50;;
82646;SDS011;72325;41.910;22.404;2023-12-20T10:53:21;10.93;;;7.47;;
82646;SDS011;72325;41.910;22.404;2023-12-20T10:55:48;12.98;;;8.82;;
82646;SDS011;72325;41.910;22.404;2023-12-20T10:58:15;9.55;;;6.47;;
82646;SDS011;72325;41.910;22.404;2023-12-20T11:00:42;9.60;;;6.45;;
82646;SDS011;72325;41.910;22.404;2023-12-20T11:03:11;12.63;;;6.35;;
82646;SDS011;72325;41.910;22.404;2023-12-20T11:05:43;14.07;;;8.18;;
82646;SDS011;72325;41.910;22.404;2023-12-20T11:08:13;10.70;;;6.57;;
82646;SDS011;72325;41.910;22.404;2023-12-20T11:13:16;9.00;;;6.38;;
82646;SDS011;72325;41.910;22.404;2023-12-20T11:15:43;10.15;;;6.72;;
82646;SDS011;72325;41.910;22.404;2023-12-20T11:18:09;10.25;;;7.32;;
82646;SDS011;72325;41.910;22.404;2023-12-20T11:20:36;9.32;;;6.70;;
82646;SDS011;72325;41.910;22.404;2023-12-20T11:23:02;9.38;;;7.20;;
82646;SDS011;72325;41.910;22.404;2023-12-20T11:25:29;9.07;;;5.93;;
82646;SDS011;72325;41.910;22.404;2023-12-20T11:28:10;10.68;;;7.75;;
82646;SDS011;72325;41.910;22.404;2023-12-20T11:30:40;14.90;;;7.00;;
82646;SDS011;72325;41.910;22.404;2023-12-20T11:33:07;12.13;;;7.28;;
82646;SDS011;72325;41.910;22.404;2023-12-20T11:35:34;10.48;;;7.38;;
82646;SDS011;72325;41.910;22.404;2023-12-20T11:38:01;11.07;;;6.82;;
82646;SDS011;72325;41.910;22.404;2023-12-20T11:40:27;11.55;;;7.55;;
82646;SDS011;72325;41.910;22.404;2023-12-20T11:42:54;9.07;;;6.65;;
82646;SDS011;72325;41.910;22.404;2023-12-20T11:45:21;10.38;;;7.88;;
82646;SDS011;72325;41.910;22.404;2023-12-20T11:47:48;11.55;;;7.00;;
82646;SDS011;72325;41.910;22.404;2023-12-20T11:50:15;14.00;;;8.20;;
82646;SDS011;72325;41.910;22.404;2023-12-20T11:52:41;10.95;;;7.80;;
82646;SDS011;72325;41.910;22.404;2023-12-20T11:55:07;10.80;;;6.47;;
82646;SDS011;72325;41.910;22.404;2023-12-20T12:00:37;12.10;;;8.57;;
82646;SDS011;72325;41.910;22.404;2023-12-20T12:03:03;13.05;;;7.70;;
82646;SDS011;72325;41.910;22.404;2023-12-20T12:05:30;11.15;;;6.22;;
82646;SDS011;72325;41.910;22.404;2023-12-20T12:07:58;9.23;;;6.00;;
82646;SDS011;72325;41.910;22.404;2023-12-20T12:10:24;8.85;;;5.97;;
82646;SDS011;72325;41.910;22.404;2023-12-20T12:12:50;13.10;;;8.10;;
82646;SDS011;72325;41.910;22.404;2023-12-20T12:15:16;12.68;;;6.95;;
82646;SDS011;72325;41.910;22.404;2023-12-20T12:17:42;11.10;;;7.68;;
82646;SDS011;72325;41.910;22.404;2023-12-20T12:20:08;10.90;;;6.47;;
82646;SDS011;72325;41.910;22.404;2023-12-20T12:22:36;11.63;;;7.47;;
82646;SDS011;72325;41.910;22.404;2023-12-20T12:25:11;13.50;;;8.45;;
82646;SDS011;72325;41.910;22.404;2023-12-20T12:30:41;10.98;;;7.32;;
82646;SDS011;72325;41.910;22.404;2023-12-20T12:33:07;21.35;;;14.23;;
82646;SDS011;72325;41.910;22.404;2023-12-20T12:35:33;13.18;;;9.25;;
82646;SDS011;72325;41.910;22.404;2023-12-20T12:38:03;11.60;;;8.95;;
82646;SDS011;72325;41.910;22.404;2023-12-20T12:40:29;14.85;;;8.85;;
82646;SDS011;72325;41.910;22.404;2023-12-20T12:45:59;11.77;;;8.70;;
82646;SDS011;72325;41.910;22.404;2023-12-20T12:48:25;11.27;;;7.47;;
82646;SDS011;72325;41.910;22.404;2023-12-20T12:50:52;11.50;;;7.00;;
82646;SDS011;72325;41.910;22.404;2023-12-20T12:53:19;21.98;;;14.75;;
82646;SDS011;72325;41.910;22.404;2023-12-20T12:55:45;13.90;;;9.48;;
82646;SDS011;72325;41.910;22.404;2023-12-20T13:01:34;23.83;;;12.98;;
82646;SDS011;72325;41.910;22.404;2023-12-20T13:04:00;16.20;;;10.57;;
82646;SDS011;72325;41.910;22.404;2023-12-20T13:06:28;14.43;;;10.63;;
82646;SDS011;72325;41.910;22.404;2023-12-20T13:08:54;17.98;;;11.18;;
82646;SDS011;72325;41.910;22.404;2023-12-20T13:11:20;28.08;;;15.63;;
82646;SDS011;72325;41.910;22.404;2023-12-20T13:13:47;21.95;;;16.40;;
82646;SDS011;72325;41.910;22.404;2023-12-20T13:16:13;16.92;;;11.63;;
82646;SDS011;72325;41.910;22.404;2023-12-20T13:18:39;15.82;;;12.30;;
82646;SDS011;72325;41.910;22.404;2023-12-20T13:21:07;15.68;;;11.45;;
82646;SDS011;72325;41.910;22.404;2023-12-20T13:23:34;15.55;;;10.40;;
82646;SDS011;72325;41.910;22.404;2023-12-20T13:26:01;17.88;;;12.07;;
82646;SDS011;72325;41.910;22.404;2023-12-20T13:28:28;17.98;;;12.48;;
82646;SDS011;72325;41.910;22.404;2023-12-20T13:30:54;18.17;;;13.32;;
82646;SDS011;72325;41.910;22.404;2023-12-20T13:33:20;19.08;;;13.70;;
82646;SDS011;72325;41.910;22.404;2023-12-20T13:35:46;17.55;;;12.30;;
82646;SDS011;72325;41.910;22.404;2023-12-20T13:38:13;20.02;;;12.80;;
82646;SDS011;72325;41.910;22.404;2023-12-20T13:40:39;17.58;;;10.45;;
82646;SDS011;72325;41.910;22.404;2023-12-20T13:46:08;27.40;;;16.95;;
82646;SDS011;72325;41.910;22.404;2023-12-20T13:48:34;27.20;;;16.75;;
82646;SDS011;72325;41.910;22.404;2023-12-20T13:51:01;21.98;;;12.32;;
82646;SDS011;72325;41.910;22.404;2023-12-20T13:53:27;17.42;;;11.10;;
82646;SDS011;72325;41.910;22.404;2023-12-20T13:55:53;15.93;;;10.70;;
82646;SDS011;72325;41.910;22.404;2023-12-20T14:01:23;21.13;;;14.07;;
82646;SDS011;72325;41.910;22.404;2023-12-20T14:03:49;17.55;;;13.35;;
82646;SDS011;72325;41.910;22.404;2023-12-20T14:06:16;18.30;;;12.98;;
82646;SDS011;72325;41.910;22.404;2023-12-20T14:08:42;18.77;;;11.98;;
82646;SDS011;72325;41.910;22.404;2023-12-20T14:11:09;17.35;;;10.55;;
82646;SDS011;72325;41.910;22.404;2023-12-20T14:13:38;19.50;;;12.77;;
82646;SDS011;72325;41.910;22.404;2023-12-20T14:18:30;21.95;;;13.27;;
82646;SDS011;72325;41.910;22.404;2023-12-20T14:20:56;22.92;;;12.68;;
82646;SDS011;72325;41.910;22.404;2023-12-20T14:23:23;26.60;;;15.45;;
82646;SDS011;72325;41.910;22.404;2023-12-20T14:25:49;33.38;;;20.83;;
82646;SDS011;72325;41.910;22.404;2023-12-20T14:31:18;34.65;;;22.80;;
82646;SDS011;72325;41.910;22.404;2023-12-20T14:33:44;42.47;;;26.17;;
82646;SDS011;72325;41.910;22.404;2023-12-20T14:36:11;43.28;;;26.98;;
82646;SDS011;72325;41.910;22.404;2023-12-20T14:38:37;32.53;;;21.25;;
82646;SDS011;72325;41.910;22.404;2023-12-20T14:41:04;34.92;;;19.73;;
82646;SDS011;72325;41.910;22.404;2023-12-20T14:46:37;53.17;;;32.53;;
82646;SDS011;72325;41.910;22.404;2023-12-20T14:49:04;46.35;;;28.70;;
82646;SDS011;72325;41.910;22.404;2023-12-20T14:51:30;34.30;;;22.75;;
82646;SDS011;72325;41.910;22.404;2023-12-20T14:53:56;27.98;;;18.38;;
82646;SDS011;72325;41.910;22.404;2023-12-20T14:56:23;25.85;;;19.05;;
82646;SDS011;72325;41.910;22.404;2023-12-20T14:58:51;23.55;;;17.70;;
82646;SDS011;72325;41.910;22.404;2023-12-20T15:01:17;27.60;;;17.60;;
82646;SDS011;72325;41.910;22.404;2023-12-20T15:03:46;35.25;;;21.27;;
82646;SDS011;72325;41.910;22.404;2023-12-20T15:06:13;39.97;;;22.25;;
82646;SDS011;72325;41.910;22.404;2023-12-20T15:08:39;45.85;;;27.08;;
82646;SDS011;72325;41.910;22.404;2023-12-20T15:11:05;72.72;;;40.65;;
82646;SDS011;72325;41.910;22.404;2023-12-20T15:16:35;64.80;;;41.03;;
82646;SDS011;72325;41.910;22.404;2023-12-20T15:19:01;60.13;;;41.25;;
82646;SDS011;72325;41.910;22.404;2023-12-20T15:21:28;55.70;;;35.75;;
82646;SDS011;72325;41.910;22.404;2023-12-20T15:23:59;71.07;;;42.70;;
82646;SDS011;72325;41.910;22.404;2023-12-20T15:26:38;79.78;;;50.13;;
82646;SDS011;72325;41.910;22.404;2023-12-20T15:29:04;106.18;;;68.38;;
82646;SDS011;72325;41.910;22.404;2023-12-20T15:31:31;91.40;;;56.83;;
82646;SDS011;72325;41.910;22.404;2023-12-20T15:33:58;115.97;;;67.15;;
82646;SDS011;72325;41.910;22.404;2023-12-20T15:36:24;92.95;;;56.60;;
82646;SDS011;72325;41.910;22.404;2023-12-20T15:38:51;100.72;;;57.83;;
82646;SDS011;72325;41.910;22.404;2023-12-20T15:41:20;65.25;;;42.55;;
82646;SDS011;72325;41.910;22.404;2023-12-20T15:46:51;60.60;;;40.20;;
82646;SDS011;72325;41.910;22.404;2023-12-20T15:49:17;66.57;;;45.58;;
82646;SDS011;72325;41.910;22.404;2023-12-20T15:51:44;51.10;;;34.00;;
82646;SDS011;72325;41.910;22.404;2023-12-20T15:54:10;60.53;;;39.15;;
82646;SDS011;72325;41.910;22.404;2023-12-20T15:56:36;56.88;;;37.67;;
82646;SDS011;72325;41.910;22.404;2023-12-20T15:59:02;58.10;;;35.65;;
82646;SDS011;72325;41.910;22.404;2023-12-20T16:01:29;61.95;;;40.40;;
82646;SDS011;72325;41.910;22.404;2023-12-20T16:03:56;62.85;;;38.90;;
82646;SDS011;72325;41.910;22.404;2023-12-20T16:06:22;57.65;;;38.13;;
82646;SDS011;72325;41.910;22.404;2023-12-20T16:08:48;67.55;;;42.10;;
82646;SDS011;72325;41.910;22.404;2023-12-20T16:11:14;58.95;;;36.63;;
82646;SDS011;72325;41.910;22.404;2023-12-20T16:16:44;50.10;;;32.13;;
82646;SDS011;72325;41.910;22.404;2023-12-20T16:19:10;37.30;;;27.20;;